createdAt,value
2022-09-13T00:01:29.120Z,23.40
2022-09-13T00:03:56.412Z,25.23
2022-09-13T00:06:23.950Z,25.90
2022-09-13T00:08:51.245Z,24.87
2022-09-13T00:11:23.077Z,27.47
2022-09-13T00:13:50.283Z,26.00
2022-09-13T00:16:18.608Z,26.53
2022-09-13T00:18:46.102Z,27.10
2022-09-13T00:21:15.178Z,26.93
2022-09-13T00:23:45.442Z,26.97
2022-09-13T00:26:17.477Z,28.83
2022-09-13T00:28:45.541Z,25.57
2022-09-13T00:31:12.913Z,27.37
2022-09-13T00:33:40.128Z,32.47
2022-09-13T00:36:08.958Z,28.53
2022-09-13T00:38:36.846Z,26.60
2022-09-13T00:41:05.104Z,24.33
2022-09-13T00:43:54.944Z,25.87
2022-09-13T00:46:30.478Z,27.57
2022-09-13T00:49:00.651Z,27.70
2022-09-13T00:51:28.201Z,27.90
2022-09-13T00:53:57.234Z,26.00
2022-09-13T00:56:28.998Z,25.30
2022-09-13T00:59:16.526Z,29.43
2022-09-13T01:01:49.008Z,27.83
2022-09-13T01:04:17.072Z,31.40
2022-09-13T01:06:44.498Z,32.13
2022-09-13T01:09:13.145Z,29.37
2022-09-13T01:11:55.634Z,31.97
2022-09-13T01:14:24.594Z,24.77
2022-09-13T01:16:53.840Z,34.70
2022-09-13T01:19:21.079Z,32.97
2022-09-13T01:22:06.753Z,28.80
2022-09-13T01:24:33.814Z,28.73
2022-09-13T01:27:00.838Z,28.80
2022-09-13T01:29:33.926Z,29.73
2022-09-13T01:32:17.095Z,27.80
2022-09-13T01:34:59.503Z,31.07
2022-09-13T01:37:29.975Z,33.13
2022-09-13T01:40:01.204Z,28.63
2022-09-13T01:42:51.384Z,37.93
2022-09-13T01:45:27.361Z,31.03
2022-09-13T01:48:00.898Z,28.47
2022-09-13T01:50:37.937Z,28.53
2022-09-13T01:53:10.728Z,31.67
2022-09-13T01:55:44.910Z,28.67
2022-09-13T01:58:21.261Z,30.70
2022-09-13T02:01:07.244Z,30.67
2022-09-13T02:03:36.903Z,32.43
2022-09-13T02:06:06.976Z,32.00
2022-09-13T02:08:38.562Z,30.43
2022-09-13T02:11:12.859Z,32.80
2022-09-13T02:13:52.053Z,33.23
2022-09-13T02:16:21.939Z,33.30
2022-09-13T02:18:52.039Z,32.33
2022-09-13T02:21:28.020Z,34.27
2022-09-13T02:23:58.874Z,30.13
2022-09-13T02:26:26.471Z,31.87
2022-09-13T02:28:55.303Z,30.87
2022-09-13T02:31:35.879Z,29.03
2022-09-13T02:34:06.294Z,29.67
2022-09-13T02:36:36.230Z,29.77
2022-09-13T02:39:04.701Z,33.30
2022-09-13T02:41:43.963Z,31.60
2022-09-13T02:44:16.865Z,32.60
2022-09-13T02:47:00.851Z,28.03
2022-09-13T02:49:31.846Z,28.40
2022-09-13T02:51:58.924Z,35.67
2022-09-13T02:54:34.180Z,31.37
2022-09-13T02:57:04.035Z,33.63
2022-09-13T02:59:31.260Z,29.93
2022-09-13T03:02:15.484Z,28.63
2022-09-13T03:04:42.882Z,32.77
2022-09-13T03:07:13.767Z,36.77
2022-09-13T03:09:43.851Z,36.33
2022-09-13T03:12:16.895Z,34.47
2022-09-13T03:14:49.927Z,37.43
2022-09-13T03:17:35.457Z,31.97
2022-09-13T03:20:04.863Z,31.73
2022-09-13T03:22:44.259Z,36.93
2022-09-13T03:25:26.387Z,37.43
2022-09-13T03:28:01.177Z,33.40
2022-09-13T03:30:28.336Z,36.40
2022-09-13T03:32:55.362Z,36.53
2022-09-13T03:35:28.905Z,40.83
2022-09-13T03:37:55.994Z,41.03
2022-09-13T03:40:35.859Z,45.83
2022-09-13T03:43:11.829Z,43.57
2022-09-13T03:45:42.016Z,42.77
2022-09-13T03:48:10.995Z,40.83
2022-09-13T03:50:38.404Z,40.17
2022-09-13T03:53:07.614Z,59.63
2022-09-13T03:55:35.873Z,62.03
2022-09-13T03:58:02.940Z,49.97
2022-09-13T04:00:30.014Z,47.90
2022-09-13T04:02:57.079Z,57.60
2022-09-13T04:05:24.178Z,54.13
2022-09-13T04:07:51.274Z,54.57
2022-09-13T04:10:18.348Z,55.67
2022-09-13T04:12:45.397Z,51.97
2022-09-13T04:15:12.474Z,154.30
2022-09-13T04:17:39.539Z,143.60
2022-09-13T04:20:06.758Z,163.20
2022-09-13T04:22:33.917Z,77.60
2022-09-13T04:25:02.584Z,49.93
2022-09-13T04:27:29.922Z,47.10
2022-09-13T04:29:56.989Z,50.10
2022-09-13T04:32:24.512Z,128.23
2022-09-13T04:34:51.613Z,49.10
2022-09-13T04:37:18.672Z,64.13
2022-09-13T04:39:45.761Z,124.40
2022-09-13T04:42:13.110Z,78.87
2022-09-13T04:44:40.169Z,59.37
2022-09-13T04:47:08.214Z,46.60
2022-09-13T04:49:35.379Z,64.70
2022-09-13T04:52:02.517Z,97.40
2022-09-13T04:54:29.838Z,318.40
2022-09-13T04:56:56.904Z,119.60
2022-09-13T04:59:23.959Z,252.37
2022-09-13T05:01:51.058Z,64.70
2022-09-13T05:04:18.236Z,102.47
2022-09-13T05:06:45.365Z,51.23
2022-09-13T05:09:15.895Z,52.17
2022-09-13T05:11:43.279Z,52.20
2022-09-13T05:14:11.030Z,66.53
2022-09-13T05:16:38.117Z,108.27
2022-09-13T05:19:05.463Z,68.63
2022-09-13T05:21:32.802Z,81.23
2022-09-13T05:24:00.259Z,42.03
2022-09-13T05:26:30.998Z,94.27
2022-09-13T05:29:01.153Z,85.23
2022-09-13T05:31:30.528Z,113.10
2022-09-13T05:34:02.243Z,90.80
2022-09-13T05:36:29.833Z,43.73
2022-09-13T05:39:25.982Z,46.47
2022-09-13T05:41:46.081Z,48.13
2022-09-13T05:44:13.918Z,42.23
2022-09-13T05:46:42.259Z,38.27
2022-09-13T05:49:09.371Z,71.23
2022-09-13T05:51:36.760Z,37.73
2022-09-13T05:54:03.875Z,29.17
2022-09-13T05:56:32.162Z,29.00
2022-09-13T05:58:59.313Z,29.70
2022-09-13T06:01:27.375Z,25.67
2022-09-13T06:03:55.763Z,26.13
2022-09-13T06:06:23.631Z,25.63
2022-09-13T06:08:54.266Z,21.13
2022-09-13T06:11:21.539Z,25.80
2022-09-13T06:13:49.040Z,19.63
2022-09-13T06:16:16.953Z,23.27
2022-09-13T06:18:44.584Z,22.20
2022-09-13T06:21:17.497Z,19.87
2022-09-13T06:23:45.402Z,18.77
2022-09-13T06:26:13.438Z,22.73
2022-09-13T06:28:41.081Z,18.70
2022-09-13T06:31:09.785Z,23.83
2022-09-13T06:33:38.162Z,21.30
2022-09-13T06:36:06.524Z,18.60
2022-09-13T06:38:33.569Z,20.77
2022-09-13T06:41:01.752Z,21.27
2022-09-13T06:43:29.264Z,20.07
2022-09-13T06:46:00.093Z,19.87
2022-09-13T06:48:27.555Z,16.80
2022-09-13T06:50:58.435Z,16.90
2022-09-13T06:53:25.563Z,17.67
2022-09-13T06:56:00.710Z,17.43
2022-09-13T06:58:29.800Z,17.00
2022-09-13T07:01:06.924Z,15.97
2022-09-13T07:03:34.046Z,17.77
2022-09-13T07:06:01.178Z,20.47
2022-09-13T07:08:28.266Z,18.10
2022-09-13T07:10:58.114Z,18.87
2022-09-13T07:13:25.176Z,15.33
2022-09-13T07:15:52.325Z,17.17
2022-09-13T07:18:20.078Z,18.77
2022-09-13T07:20:47.349Z,19.20
2022-09-13T07:23:15.451Z,20.27
2022-09-13T07:25:42.623Z,18.13
2022-09-13T07:28:09.669Z,18.53
2022-09-13T07:30:36.741Z,21.67
2022-09-13T07:33:03.787Z,18.53
2022-09-13T07:35:30.866Z,19.03
2022-09-13T07:37:57.948Z,20.73
2022-09-13T07:40:25.073Z,20.57
2022-09-13T07:42:52.133Z,17.40
2022-09-13T07:45:19.775Z,18.13
2022-09-13T07:47:46.856Z,18.57
2022-09-13T07:50:13.958Z,17.87
2022-09-13T07:52:41.094Z,20.30
2022-09-13T07:55:08.659Z,16.63
2022-09-13T07:57:35.749Z,16.10
2022-09-13T08:00:03.063Z,16.20
2022-09-13T08:02:30.236Z,16.57
2022-09-13T08:04:57.312Z,19.17
2022-09-13T08:07:25.015Z,19.23
2022-09-13T08:09:52.425Z,15.80
2022-09-13T08:12:19.492Z,18.80
2022-09-13T08:14:46.525Z,15.27
2022-09-13T08:17:13.595Z,18.33
2022-09-13T08:19:40.629Z,17.73
2022-09-13T08:22:07.680Z,16.27
2022-09-13T08:24:34.962Z,18.33
2022-09-13T08:27:02.018Z,17.03
2022-09-13T08:29:29.233Z,15.50
2022-09-13T08:31:56.373Z,13.87
2022-09-13T08:34:23.432Z,15.37
2022-09-13T08:36:50.508Z,12.53
2022-09-13T08:39:17.585Z,13.90
2022-09-13T08:41:52.713Z,16.20
2022-09-13T08:44:26.637Z,14.17
2022-09-13T08:46:58.182Z,15.13
2022-09-13T08:49:28.917Z,15.00
2022-09-13T08:51:59.792Z,14.80
2022-09-13T08:54:27.273Z,13.80
2022-09-13T08:56:54.874Z,14.43
2022-09-13T08:59:30.168Z,16.37
2022-09-13T09:02:13.242Z,14.57
2022-09-13T09:04:47.231Z,16.13
2022-09-13T09:07:19.874Z,17.97
2022-09-13T09:09:52.638Z,14.40
2022-09-13T09:12:42.871Z,16.97
2022-09-13T09:15:18.110Z,19.30
2022-09-13T09:17:54.450Z,16.80
2022-09-13T09:20:32.673Z,17.90
2022-09-13T09:23:01.915Z,18.13
2022-09-13T09:25:28.962Z,19.67
2022-09-13T09:27:57.087Z,18.43
2022-09-13T09:30:24.186Z,21.30
2022-09-13T09:32:51.330Z,23.97
2022-09-13T09:35:37.910Z,22.70
2022-09-13T09:38:23.754Z,19.87
2022-09-13T09:40:50.890Z,23.00
2022-09-13T09:43:26.201Z,22.33
2022-09-13T09:45:53.952Z,25.20
2022-09-13T09:48:22.993Z,23.93
2022-09-13T09:50:54.574Z,20.13
2022-09-13T09:53:30.012Z,22.63
2022-09-13T09:56:06.617Z,18.92
2022-09-13T09:58:40.811Z,23.23
2022-09-13T10:01:17.250Z,20.92
2022-09-13T10:03:50.596Z,19.17
2022-09-13T10:06:22.506Z,19.98
2022-09-13T10:08:56.254Z,18.08
2022-09-13T10:11:24.361Z,18.02
2022-09-13T10:14:02.302Z,17.67
2022-09-13T10:16:30.262Z,18.15
2022-09-13T10:19:16.280Z,19.02
2022-09-13T10:21:43.328Z,17.42
2022-09-13T10:24:19.049Z,15.70
2022-09-13T10:26:46.416Z,21.70
2022-09-13T10:29:15.817Z,17.75
2022-09-13T10:31:44.503Z,18.23
2022-09-13T10:34:11.555Z,17.50
2022-09-13T10:36:52.059Z,18.70
2022-09-13T10:39:21.263Z,17.60
2022-09-13T10:41:54.334Z,21.85
2022-09-13T10:44:37.916Z,18.35
2022-09-13T10:47:07.076Z,16.00
2022-09-13T10:49:37.960Z,20.17
2022-09-13T10:52:23.923Z,19.10
2022-09-13T10:54:50.985Z,22.03
2022-09-13T10:57:34.455Z,21.10
2022-09-13T11:00:01.703Z,18.53
2022-09-13T11:02:35.041Z,19.57
2022-09-13T11:05:20.982Z,19.23
2022-09-13T11:07:59.223Z,15.13
2022-09-13T11:10:26.358Z,17.60
2022-09-13T11:12:53.417Z,12.60
2022-09-13T11:15:35.440Z,9.27
2022-09-13T11:18:21.077Z,9.77
2022-09-13T11:20:48.228Z,11.87
2022-09-13T11:23:33.870Z,11.60
2022-09-13T11:26:08.225Z,15.03
2022-09-13T11:29:00.791Z,11.77
2022-09-13T11:31:34.953Z,12.43
2022-09-13T11:34:02.070Z,13.33
2022-09-13T11:36:29.101Z,14.03
2022-09-13T11:39:05.662Z,9.37
2022-09-13T11:42:02.245Z,13.30
2022-09-13T11:44:29.303Z,12.73
2022-09-13T11:47:15.036Z,10.73
2022-09-13T11:50:00.453Z,12.43
2022-09-13T11:52:30.386Z,11.40
2022-09-13T11:55:16.413Z,10.03
2022-09-13T11:57:48.460Z,10.60
2022-09-13T12:00:18.601Z,9.87
2022-09-13T12:03:04.359Z,11.30
2022-09-13T12:05:34.261Z,11.53
2022-09-13T12:08:07.759Z,9.90
2022-09-13T12:10:35.183Z,9.47
2022-09-13T12:13:03.302Z,11.57
2022-09-13T12:15:36.358Z,8.10
2022-09-13T12:18:11.986Z,15.03
2022-09-13T12:20:40.911Z,9.30
2022-09-13T12:23:21.375Z,13.43
2022-09-13T12:26:07.407Z,9.13
2022-09-13T12:28:47.414Z,9.10
2022-09-13T12:31:19.392Z,10.07
2022-09-13T12:33:47.810Z,10.90
2022-09-13T12:36:25.478Z,12.60
2022-09-13T12:39:11.281Z,7.80
2022-09-13T12:41:53.260Z,5.45
2022-09-13T12:44:20.341Z,10.68
2022-09-13T12:47:08.063Z,7.72
2022-09-13T12:49:44.763Z,6.30
2022-09-13T12:52:31.289Z,8.82
2022-09-13T12:54:58.354Z,7.47
2022-09-13T12:57:34.235Z,6.88
2022-09-13T13:00:19.471Z,7.57
2022-09-13T13:02:54.615Z,6.67
2022-09-13T13:05:21.951Z,7.60
2022-09-13T13:07:53.911Z,8.63
2022-09-13T13:10:30.553Z,11.30
2022-09-13T13:13:09.872Z,9.20
2022-09-13T13:15:36.955Z,7.22
2022-09-13T13:18:24.299Z,6.47
2022-09-13T13:20:54.378Z,9.60
2022-09-13T13:23:26.980Z,8.50
2022-09-13T13:25:58.139Z,9.40
2022-09-13T13:28:44.346Z,7.82
2022-09-13T13:31:29.983Z,7.18
2022-09-13T13:33:58.582Z,6.38
2022-09-13T13:36:53.483Z,9.07
2022-09-13T13:39:23.569Z,8.70
2022-09-13T13:42:09.211Z,7.40
2022-09-13T13:44:36.268Z,8.07
2022-09-13T13:47:09.296Z,13.60
2022-09-13T13:49:39.123Z,8.25
2022-09-13T13:52:06.182Z,9.50
2022-09-13T13:54:37.270Z,10.38
2022-09-13T13:57:04.958Z,8.00
2022-09-13T13:59:33.651Z,11.10
2022-09-13T14:02:01.875Z,10.35
2022-09-13T14:04:47.011Z,9.10
2022-09-13T14:07:22.566Z,7.20
2022-09-13T14:09:53.009Z,7.15
2022-09-13T14:12:49.212Z,6.53
2022-09-13T14:15:16.330Z,6.60
2022-09-13T14:17:58.385Z,8.60
2022-09-13T14:20:26.105Z,5.20
2022-09-13T14:23:11.588Z,6.43
2022-09-13T14:25:39.246Z,7.13
2022-09-13T14:28:07.772Z,6.32
2022-09-13T14:30:39.241Z,9.38
2022-09-13T14:33:06.767Z,7.05
2022-09-13T14:35:35.628Z,8.80
2022-09-13T14:38:23.418Z,6.72
2022-09-13T14:40:51.776Z,6.32
2022-09-13T14:43:22.923Z,7.90
2022-09-13T14:45:53.086Z,5.88
2022-09-13T14:48:23.521Z,7.57
2022-09-13T14:50:53.854Z,5.35
2022-09-13T14:53:22.738Z,5.95
2022-09-13T14:56:12.051Z,5.22
2022-09-13T14:58:45.810Z,5.90
2022-09-13T15:01:14.593Z,5.45
2022-09-13T15:03:43.093Z,4.15
2022-09-13T15:06:20.513Z,5.68
2022-09-13T15:08:49.028Z,9.82
2022-09-13T15:11:27.022Z,9.07
2022-09-13T15:14:04.763Z,4.70
2022-09-13T15:16:32.586Z,6.13
2022-09-13T15:19:18.633Z,5.57
2022-09-13T15:21:46.520Z,6.18
2022-09-13T15:24:19.644Z,5.47
2022-09-13T15:26:46.781Z,5.70
2022-09-13T15:29:18.288Z,4.85
2022-09-13T15:31:45.525Z,4.22
2022-09-13T15:34:30.861Z,5.28
2022-09-13T15:37:01.026Z,5.40
2022-09-13T15:39:28.097Z,4.38
2022-09-13T15:42:00.351Z,4.22
2022-09-13T15:44:28.075Z,6.60
2022-09-13T15:46:57.617Z,4.38
2022-09-13T15:49:27.235Z,5.93
2022-09-13T15:51:59.065Z,4.53
2022-09-13T15:54:33.074Z,7.03
2022-09-13T15:57:00.256Z,5.25
2022-09-13T15:59:27.310Z,8.77
2022-09-13T16:01:55.956Z,8.25
2022-09-13T16:04:23.194Z,5.32
2022-09-13T16:06:50.242Z,8.07
2022-09-13T16:09:25.054Z,7.35
2022-09-13T16:11:52.649Z,6.67
2022-09-13T16:14:20.213Z,9.83
2022-09-13T16:16:48.963Z,10.37
2022-09-13T16:19:17.598Z,7.27
2022-09-13T16:21:44.795Z,8.70
2022-09-13T16:24:11.978Z,9.93
2022-09-13T16:26:39.460Z,7.03
2022-09-13T16:29:06.832Z,8.60
2022-09-13T16:31:34.373Z,9.90
2022-09-13T16:34:01.694Z,7.00
2022-09-13T16:36:28.978Z,7.77
2022-09-13T16:38:56.747Z,9.43
2022-09-13T16:41:24.364Z,8.90
2022-09-13T16:43:51.434Z,6.07
2022-09-13T16:46:18.827Z,8.30
2022-09-13T16:48:45.949Z,8.80
2022-09-13T16:51:13.716Z,7.13
2022-09-13T16:53:41.937Z,8.43
2022-09-13T16:56:13.405Z,8.03
2022-09-13T16:58:41.261Z,9.63
2022-09-13T17:01:09.400Z,13.97
2022-09-13T17:03:36.970Z,14.13
2022-09-13T17:06:08.622Z,12.27
2022-09-13T17:08:37.221Z,8.63
2022-09-13T17:11:08.240Z,9.37
2022-09-13T17:13:35.890Z,9.87
2022-09-13T17:16:03.188Z,10.00
2022-09-13T17:18:30.374Z,9.17
2022-09-13T17:20:59.346Z,7.87
2022-09-13T17:23:26.464Z,6.93
2022-09-13T17:25:53.557Z,7.57
2022-09-13T17:28:21.598Z,8.80
2022-09-13T17:30:48.730Z,7.53
2022-09-13T17:33:15.821Z,7.30
2022-09-13T17:35:43.574Z,7.67
2022-09-13T17:38:11.399Z,9.17
2022-09-13T17:40:38.504Z,7.20
2022-09-13T17:43:05.594Z,9.33
2022-09-13T17:45:32.699Z,9.20
2022-09-13T17:47:59.836Z,9.17
2022-09-13T17:50:27.068Z,8.37
2022-09-13T17:52:54.109Z,9.83
2022-09-13T17:55:21.234Z,7.77
2022-09-13T17:57:49.791Z,10.23
2022-09-13T18:00:19.687Z,9.90
2022-09-13T18:02:46.874Z,10.37
2022-09-13T18:05:14.115Z,8.10
2022-09-13T18:07:41.178Z,13.83
2022-09-13T18:10:20.441Z,11.10
2022-09-13T18:12:55.506Z,7.87
2022-09-13T18:15:22.568Z,9.97
2022-09-13T18:17:49.683Z,9.03
2022-09-13T18:20:16.785Z,11.90
2022-09-13T18:22:43.859Z,11.20
2022-09-13T18:25:10.939Z,10.90
2022-09-13T18:27:38.105Z,9.60
2022-09-13T18:30:07.137Z,11.47
2022-09-13T18:32:34.243Z,10.67
2022-09-13T18:35:01.401Z,9.57
2022-09-13T18:37:28.478Z,8.73
2022-09-13T18:39:55.799Z,11.17
2022-09-13T18:42:22.944Z,8.90
2022-09-13T18:44:50.866Z,10.10
2022-09-13T18:47:18.081Z,10.70
2022-09-13T18:49:45.163Z,8.03
2022-09-13T18:52:12.455Z,11.00
2022-09-13T18:54:39.691Z,8.40
2022-09-13T18:57:06.764Z,13.33
2022-09-13T18:59:33.827Z,10.53
2022-09-13T19:02:01.125Z,8.80
2022-09-13T19:04:28.275Z,9.27
2022-09-13T19:06:58.749Z,10.63
2022-09-13T19:09:25.935Z,9.60
2022-09-13T19:11:53.661Z,9.30
2022-09-13T19:14:23.133Z,9.23
2022-09-13T19:16:50.776Z,15.67
2022-09-13T19:19:18.138Z,10.10
2022-09-13T19:21:45.347Z,8.07
2022-09-13T19:24:17.660Z,8.40
2022-09-13T19:26:46.826Z,11.30
2022-09-13T19:29:15.918Z,11.27
2022-09-13T19:31:44.031Z,11.70
2022-09-13T19:34:12.265Z,10.50
2022-09-13T19:36:40.040Z,12.00
2022-09-13T19:39:07.996Z,8.67
2022-09-13T19:41:35.725Z,10.23
2022-09-13T19:44:03.725Z,9.30
2022-09-13T19:46:32.195Z,10.27
2022-09-13T19:49:00.077Z,9.00
2022-09-13T19:51:28.615Z,9.77
2022-09-13T19:53:57.751Z,10.27
2022-09-13T19:56:35.346Z,14.77
2022-09-13T19:59:02.904Z,11.27
2022-09-13T20:01:31.976Z,9.50
2022-09-13T20:04:00.504Z,9.27
2022-09-13T20:06:28.332Z,10.90
2022-09-13T20:08:59.200Z,9.57
2022-09-13T20:11:28.346Z,12.03
2022-09-13T20:13:56.075Z,9.10
2022-09-13T20:16:24.657Z,10.67
2022-09-13T20:18:52.192Z,9.57
2022-09-13T20:21:19.693Z,12.43
2022-09-13T20:23:47.346Z,13.13
2022-09-13T20:26:21.714Z,13.30
2022-09-13T20:28:50.376Z,10.13
2022-09-13T20:31:18.202Z,12.83
2022-09-13T20:33:45.327Z,11.80
2022-09-13T20:36:13.544Z,16.17
2022-09-13T20:38:41.252Z,11.57
2022-09-13T20:41:11.505Z,11.43
2022-09-13T20:43:38.893Z,11.50
2022-09-13T20:46:06.419Z,11.57
2022-09-13T20:48:34.233Z,10.50
2022-09-13T20:51:02.588Z,9.77
2022-09-13T20:53:30.180Z,11.67
2022-09-13T20:56:02.450Z,12.10
2022-09-13T20:58:29.626Z,12.27
2022-09-13T21:01:02.753Z,12.50
2022-09-13T21:03:30.273Z,16.53
2022-09-13T21:05:57.331Z,14.20
2022-09-13T21:08:42.676Z,11.90
2022-09-13T21:11:13.677Z,10.80
2022-09-13T21:13:42.142Z,14.27
2022-09-13T21:16:13.882Z,11.40
2022-09-13T21:18:41.249Z,9.90
2022-09-13T21:21:09.815Z,12.53
2022-09-13T21:23:39.483Z,11.43
2022-09-13T21:26:07.833Z,12.20
2022-09-13T21:28:35.717Z,12.47
2022-09-13T21:31:04.437Z,12.33
2022-09-13T21:33:31.813Z,12.93
2022-09-13T21:36:00.710Z,11.80
2022-09-13T21:38:28.739Z,11.43
2022-09-13T21:40:56.763Z,14.50
2022-09-13T21:43:26.333Z,10.57
2022-09-13T21:46:00.592Z,12.37
2022-09-13T21:48:28.428Z,11.07
2022-09-13T21:50:56.415Z,10.97
2022-09-13T21:53:23.505Z,10.77
2022-09-13T21:55:51.651Z,11.33
2022-09-13T21:58:18.704Z,11.57
2022-09-13T22:00:45.787Z,11.50
2022-09-13T22:03:12.865Z,11.97
2022-09-13T22:05:39.978Z,11.73
2022-09-13T22:08:07.187Z,12.40
2022-09-13T22:10:35.998Z,12.90
2022-09-13T22:13:03.819Z,9.83
2022-09-13T22:15:30.982Z,13.03
2022-09-13T22:17:58.055Z,12.93
2022-09-13T22:20:25.133Z,12.60
2022-09-13T22:22:52.214Z,11.63
2022-09-13T22:25:19.479Z,11.90
2022-09-13T22:27:46.519Z,13.40
2022-09-13T22:30:14.818Z,11.57
2022-09-13T22:32:41.882Z,10.47
2022-09-13T22:35:09.675Z,14.60
2022-09-13T22:37:37.134Z,11.47
2022-09-13T22:40:05.025Z,11.13
2022-09-13T22:42:32.238Z,11.33
2022-09-13T22:44:59.355Z,11.17
2022-09-13T22:47:26.439Z,13.53
2022-09-13T22:49:53.545Z,11.73
2022-09-13T22:52:20.736Z,11.10
2022-09-13T22:54:50.774Z,10.03
2022-09-13T22:57:18.244Z,12.53
2022-09-13T22:59:45.315Z,12.60
2022-09-13T23:02:12.450Z,12.20
2022-09-13T23:04:39.526Z,14.70
2022-09-13T23:07:06.608Z,11.57
2022-09-13T23:09:33.646Z,13.77
2022-09-13T23:12:00.758Z,13.10
2022-09-13T23:14:27.839Z,12.30
2022-09-13T23:16:55.180Z,13.60
2022-09-13T23:19:25.582Z,11.43
2022-09-13T23:21:53.637Z,14.67
2022-09-13T23:24:21.080Z,13.80
2022-09-13T23:26:48.307Z,10.80
2022-09-13T23:29:17.529Z,11.87
2022-09-13T23:31:46.199Z,15.43
2022-09-13T23:34:14.252Z,10.77
2022-09-13T23:36:42.081Z,13.13
2022-09-13T23:39:10.925Z,12.03
2022-09-13T23:41:38.817Z,13.13
2022-09-13T23:44:06.057Z,13.97
2022-09-13T23:46:33.120Z,17.67
2022-09-13T23:49:00.228Z,16.23
2022-09-13T23:51:27.833Z,14.80
2022-09-13T23:54:00.525Z,14.67
2022-09-13T23:56:28.586Z,14.13
2022-09-13T23:58:59.534Z,15.10
